Naples, Florida
Current Conditions -  °F | °C
As of 2:53 PM on Sunday 25 Jan 2015 (Local Time) from KAPF Reporting Station
Clear Clear  
Wind Chill: 66°   Ceiling: Unl
Heat Index: 66°   Visibility: 10mi
Dew Point: 48°   Wind: 7mph
Humidity: 52%   Direction: NA
Pressure: 30.01"   Gusts: NA
Location:  26.14°N, 81.79°W
Report Text: KAPF 251953Z VRB06KT 10SM CLR 19/09 A3001 RMK AO2 SLP161 T01890089
Loading
Personal Weather Stations






























Interactive Weather Map New forecast layout! Learn more

10-Day Weather Forecast

Advertisements
Track Severe Weather on mobile